sensor_id;sensor_type;location;lat;lon;timestamp;P1;durP1;ratioP1;P2;durP2;ratioP2
60018;SDS011;45870;42.528;26.740;2023-07-13T00:01:48;16.02;;;11.30;;
60018;SDS011;45870;42.528;26.740;2023-07-13T00:04:15;16.45;;;11.93;;
60018;SDS011;45870;42.528;26.740;2023-07-13T00:06:43;13.13;;;11.32;;
60018;SDS011;45870;42.528;26.740;2023-07-13T00:09:12;13.00;;;11.57;;
60018;SDS011;45870;42.528;26.740;2023-07-13T00:11:40;14.00;;;11.38;;
60018;SDS011;45870;42.528;26.740;2023-07-13T00:14:06;14.27;;;11.60;;
60018;SDS011;45870;42.528;26.740;2023-07-13T00:16:36;19.27;;;12.13;;
60018;SDS011;45870;42.528;26.740;2023-07-13T00:19:03;12.85;;;10.88;;
60018;SDS011;45870;42.528;26.740;2023-07-13T00:21:30;16.45;;;11.73;;
60018;SDS011;45870;42.528;26.740;2023-07-13T00:23:56;17.33;;;11.65;;
60018;SDS011;45870;42.528;26.740;2023-07-13T00:26:21;17.40;;;11.88;;
60018;SDS011;45870;42.528;26.740;2023-07-13T00:28:47;12.45;;;11.15;;
60018;SDS011;45870;42.528;26.740;2023-07-13T00:31:13;15.45;;;11.35;;
60018;SDS011;45870;42.528;26.740;2023-07-13T00:33:40;14.73;;;11.35;;
60018;SDS011;45870;42.528;26.740;2023-07-13T00:36:07;12.85;;;11.27;;
60018;SDS011;45870;42.528;26.740;2023-07-13T00:38:33;14.40;;;12.05;;
60018;SDS011;45870;42.528;26.740;2023-07-13T00:40:59;14.73;;;12.15;;
60018;SDS011;45870;42.528;26.740;2023-07-13T00:43:26;17.98;;;10.73;;
60018;SDS011;45870;42.528;26.740;2023-07-13T00:48:20;15.13;;;11.95;;
60018;SDS011;45870;42.528;26.740;2023-07-13T00:50:49;15.13;;;12.82;;
60018;SDS011;45870;42.528;26.740;2023-07-13T00:53:19;17.35;;;12.68;;
60018;SDS011;45870;42.528;26.740;2023-07-13T00:55:46;19.10;;;12.82;;
60018;SDS011;45870;42.528;26.740;2023-07-13T00:58:13;17.80;;;13.23;;
60018;SDS011;45870;42.528;26.740;2023-07-13T01:00:40;16.83;;;13.07;;
60018;SDS011;45870;42.528;26.740;2023-07-13T01:03:06;15.80;;;13.35;;
60018;SDS011;45870;42.528;26.740;2023-07-13T01:05:32;21.92;;;13.07;;
60018;SDS011;45870;42.528;26.740;2023-07-13T01:08:00;19.85;;;13.85;;
60018;SDS011;45870;42.528;26.740;2023-07-13T01:10:29;24.13;;;14.45;;
60018;SDS011;45870;42.528;26.740;2023-07-13T01:12:54;17.65;;;13.52;;
60018;SDS011;45870;42.528;26.740;2023-07-13T01:18:05;22.23;;;15.68;;
60018;SDS011;45870;42.528;26.740;2023-07-13T01:20:35;23.10;;;18.02;;
60018;SDS011;45870;42.528;26.740;2023-07-13T01:23:05;20.33;;;16.83;;
60018;SDS011;45870;42.528;26.740;2023-07-13T01:25:33;25.02;;;16.50;;
60018;SDS011;45870;42.528;26.740;2023-07-13T01:28:00;23.45;;;17.38;;
60018;SDS011;45870;42.528;26.740;2023-07-13T01:30:27;23.20;;;17.55;;
60018;SDS011;45870;42.528;26.740;2023-07-13T01:32:52;19.67;;;16.52;;
60018;SDS011;45870;42.528;26.740;2023-07-13T01:35:18;21.50;;;15.70;;
60018;SDS011;45870;42.528;26.740;2023-07-13T01:37:44;18.20;;;14.82;;
60018;SDS011;45870;42.528;26.740;2023-07-13T01:40:10;18.98;;;15.02;;
60018;SDS011;45870;42.528;26.740;2023-07-13T01:42:37;25.77;;;17.90;;
60018;SDS011;45870;42.528;26.740;2023-07-13T01:45:05;21.95;;;16.35;;
60018;SDS011;45870;42.528;26.740;2023-07-13T01:47:31;20.83;;;15.20;;
60018;SDS011;45870;42.528;26.740;2023-07-13T01:49:57;16.48;;;14.35;;
60018;SDS011;45870;42.528;26.740;2023-07-13T01:52:23;17.33;;;13.23;;
60018;SDS011;45870;42.528;26.740;2023-07-13T01:54:49;16.60;;;13.30;;
60018;SDS011;45870;42.528;26.740;2023-07-13T01:57:14;17.05;;;14.65;;
60018;SDS011;45870;42.528;26.740;2023-07-13T01:59:40;16.27;;;13.38;;
60018;SDS011;45870;42.528;26.740;2023-07-13T02:02:06;14.18;;;12.63;;
60018;SDS011;45870;42.528;26.740;2023-07-13T02:04:32;15.13;;;13.15;;
60018;SDS011;45870;42.528;26.740;2023-07-13T02:06:58;17.40;;;14.30;;
60018;SDS011;45870;42.528;26.740;2023-07-13T02:09:23;15.60;;;13.18;;
60018;SDS011;45870;42.528;26.740;2023-07-13T02:11:49;15.55;;;13.73;;
60018;SDS011;45870;42.528;26.740;2023-07-13T02:14:15;19.45;;;12.70;;
60018;SDS011;45870;42.528;26.740;2023-07-13T02:16:40;19.95;;;15.27;;
60018;SDS011;45870;42.528;26.740;2023-07-13T02:19:07;20.42;;;16.08;;
60018;SDS011;45870;42.528;26.740;2023-07-13T02:21:33;24.45;;;16.77;;
60018;SDS011;45870;42.528;26.740;2023-07-13T02:23:59;18.60;;;16.23;;
60018;SDS011;45870;42.528;26.740;2023-07-13T02:26:25;17.45;;;14.50;;
60018;SDS011;45870;42.528;26.740;2023-07-13T02:28:51;16.77;;;14.13;;
60018;SDS011;45870;42.528;26.740;2023-07-13T02:31:17;16.77;;;14.07;;
60018;SDS011;45870;42.528;26.740;2023-07-13T02:33:43;17.23;;;13.13;;
60018;SDS011;45870;42.528;26.740;2023-07-13T02:36:09;15.93;;;14.30;;
60018;SDS011;45870;42.528;26.740;2023-07-13T02:38:36;17.23;;;14.65;;
60018;SDS011;45870;42.528;26.740;2023-07-13T02:41:03;14.52;;;12.90;;
60018;SDS011;45870;42.528;26.740;2023-07-13T02:43:29;17.00;;;13.02;;
60018;SDS011;45870;42.528;26.740;2023-07-13T02:45:55;16.92;;;12.10;;
60018;SDS011;45870;42.528;26.740;2023-07-13T02:48:21;15.73;;;14.10;;
60018;SDS011;45870;42.528;26.740;2023-07-13T02:50:46;18.83;;;13.45;;
60018;SDS011;45870;42.528;26.740;2023-07-13T02:53:12;17.33;;;14.35;;
60018;SDS011;45870;42.528;26.740;2023-07-13T02:55:38;13.85;;;12.45;;
60018;SDS011;45870;42.528;26.740;2023-07-13T02:58:06;17.17;;;13.77;;
60018;SDS011;45870;42.528;26.740;2023-07-13T03:00:32;16.10;;;14.40;;
60018;SDS011;45870;42.528;26.740;2023-07-13T03:02:58;18.77;;;13.77;;
60018;SDS011;45870;42.528;26.740;2023-07-13T03:05:23;19.45;;;14.07;;
60018;SDS011;45870;42.528;26.740;2023-07-13T03:07:49;21.52;;;12.82;;
60018;SDS011;45870;42.528;26.740;2023-07-13T03:10:15;19.20;;;13.68;;
60018;SDS011;45870;42.528;26.740;2023-07-13T03:12:41;15.25;;;13.13;;
60018;SDS011;45870;42.528;26.740;2023-07-13T03:15:07;16.85;;;13.18;;
60018;SDS011;45870;42.528;26.740;2023-07-13T03:17:33;14.82;;;11.77;;
60018;SDS011;45870;42.528;26.740;2023-07-13T03:19:59;14.35;;;12.38;;
60018;SDS011;45870;42.528;26.740;2023-07-13T03:22:24;16.55;;;10.55;;
60018;SDS011;45870;42.528;26.740;2023-07-13T03:24:50;14.55;;;9.20;;
60018;SDS011;45870;42.528;26.740;2023-07-13T03:27:16;15.00;;;9.23;;
60018;SDS011;45870;42.528;26.740;2023-07-13T03:29:43;13.55;;;9.15;;
60018;SDS011;45870;42.528;26.740;2023-07-13T03:32:08;11.05;;;8.38;;
60018;SDS011;45870;42.528;26.740;2023-07-13T03:34:34;18.77;;;8.63;;
60018;SDS011;45870;42.528;26.740;2023-07-13T03:37:00;11.43;;;8.23;;
60018;SDS011;45870;42.528;26.740;2023-07-13T03:39:25;12.25;;;8.10;;
60018;SDS011;45870;42.528;26.740;2023-07-13T03:41:51;10.77;;;7.40;;
60018;SDS011;45870;42.528;26.740;2023-07-13T03:44:18;8.13;;;7.22;;
60018;SDS011;45870;42.528;26.740;2023-07-13T03:46:44;9.18;;;7.28;;
60018;SDS011;45870;42.528;26.740;2023-07-13T03:49:10;10.88;;;9.00;;
60018;SDS011;45870;42.528;26.740;2023-07-13T03:51:36;14.10;;;8.80;;
60018;SDS011;45870;42.528;26.740;2023-07-13T03:54:02;12.00;;;9.20;;
60018;SDS011;45870;42.528;26.740;2023-07-13T03:56:28;12.32;;;8.75;;
60018;SDS011;45870;42.528;26.740;2023-07-13T03:58:56;10.60;;;8.60;;
60018;SDS011;45870;42.528;26.740;2023-07-13T04:01:22;14.13;;;8.50;;
60018;SDS011;45870;42.528;26.740;2023-07-13T04:03:50;16.08;;;9.18;;
60018;SDS011;45870;42.528;26.740;2023-07-13T04:06:28;13.60;;;8.77;;
60018;SDS011;45870;42.528;26.740;2023-07-13T04:08:59;10.35;;;7.90;;
60018;SDS011;45870;42.528;26.740;2023-07-13T04:11:27;10.63;;;8.50;;
60018;SDS011;45870;42.528;26.740;2023-07-13T04:13:54;11.60;;;8.45;;
60018;SDS011;45870;42.528;26.740;2023-07-13T04:16:20;11.27;;;8.27;;
60018;SDS011;45870;42.528;26.740;2023-07-13T04:18:46;10.07;;;8.05;;
60018;SDS011;45870;42.528;26.740;2023-07-13T04:21:13;9.45;;;8.07;;
60018;SDS011;45870;42.528;26.740;2023-07-13T04:23:39;10.80;;;7.63;;
60018;SDS011;45870;42.528;26.740;2023-07-13T04:26:05;9.25;;;8.10;;
60018;SDS011;45870;42.528;26.740;2023-07-13T04:28:31;11.27;;;8.27;;
60018;SDS011;45870;42.528;26.740;2023-07-13T04:30:58;9.40;;;7.40;;
60018;SDS011;45870;42.528;26.740;2023-07-13T04:33:23;10.32;;;7.57;;
60018;SDS011;45870;42.528;26.740;2023-07-13T04:35:50;13.23;;;7.30;;
60018;SDS011;45870;42.528;26.740;2023-07-13T04:38:20;9.93;;;7.22;;
60018;SDS011;45870;42.528;26.740;2023-07-13T04:40:45;10.05;;;7.30;;
60018;SDS011;45870;42.528;26.740;2023-07-13T04:43:13;16.20;;;6.78;;
60018;SDS011;45870;42.528;26.740;2023-07-13T04:45:38;10.32;;;7.00;;
60018;SDS011;45870;42.528;26.740;2023-07-13T04:48:04;11.82;;;7.18;;
60018;SDS011;45870;42.528;26.740;2023-07-13T04:50:30;11.48;;;7.50;;
60018;SDS011;45870;42.528;26.740;2023-07-13T04:52:55;8.90;;;7.45;;
60018;SDS011;45870;42.528;26.740;2023-07-13T04:55:21;11.05;;;6.97;;
60018;SDS011;45870;42.528;26.740;2023-07-13T04:57:47;11.50;;;7.15;;
60018;SDS011;45870;42.528;26.740;2023-07-13T05:00:13;9.45;;;7.28;;
60018;SDS011;45870;42.528;26.740;2023-07-13T05:02:42;10.27;;;7.35;;
60018;SDS011;45870;42.528;26.740;2023-07-13T05:05:09;11.70;;;7.72;;
60018;SDS011;45870;42.528;26.740;2023-07-13T05:07:35;10.30;;;8.20;;
60018;SDS011;45870;42.528;26.740;2023-07-13T05:10:01;15.55;;;8.75;;
60018;SDS011;45870;42.528;26.740;2023-07-13T05:12:29;11.10;;;8.30;;
60018;SDS011;45870;42.528;26.740;2023-07-13T05:14:55;12.80;;;8.48;;
60018;SDS011;45870;42.528;26.740;2023-07-13T05:17:21;13.15;;;8.75;;
60018;SDS011;45870;42.528;26.740;2023-07-13T05:19:46;11.65;;;8.13;;
60018;SDS011;45870;42.528;26.740;2023-07-13T05:22:12;16.02;;;8.02;;
60018;SDS011;45870;42.528;26.740;2023-07-13T05:24:38;13.65;;;9.13;;
60018;SDS011;45870;42.528;26.740;2023-07-13T05:27:03;10.77;;;8.63;;
60018;SDS011;45870;42.528;26.740;2023-07-13T05:29:29;17.33;;;8.82;;
60018;SDS011;45870;42.528;26.740;2023-07-13T05:31:55;14.30;;;9.00;;
60018;SDS011;45870;42.528;26.740;2023-07-13T05:34:21;14.43;;;9.35;;
60018;SDS011;45870;42.528;26.740;2023-07-13T05:36:46;13.20;;;8.70;;
60018;SDS011;45870;42.528;26.740;2023-07-13T05:39:14;15.35;;;9.32;;
60018;SDS011;45870;42.528;26.740;2023-07-13T05:41:40;12.40;;;8.55;;
60018;SDS011;45870;42.528;26.740;2023-07-13T05:44:05;13.00;;;9.57;;
60018;SDS011;45870;42.528;26.740;2023-07-13T05:46:31;15.75;;;8.77;;
60018;SDS011;45870;42.528;26.740;2023-07-13T05:48:57;10.68;;;8.35;;
60018;SDS011;45870;42.528;26.740;2023-07-13T05:51:22;12.35;;;9.10;;
60018;SDS011;45870;42.528;26.740;2023-07-13T05:53:48;13.88;;;9.77;;
60018;SDS011;45870;42.528;26.740;2023-07-13T05:56:13;16.83;;;9.80;;
60018;SDS011;45870;42.528;26.740;2023-07-13T05:58:39;12.73;;;10.23;;
60018;SDS011;45870;42.528;26.740;2023-07-13T06:01:05;13.98;;;10.35;;
60018;SDS011;45870;42.528;26.740;2023-07-13T06:03:35;15.32;;;10.20;;
60018;SDS011;45870;42.528;26.740;2023-07-13T06:06:00;13.77;;;10.05;;
60018;SDS011;45870;42.528;26.740;2023-07-13T06:08:27;14.23;;;10.10;;
60018;SDS011;45870;42.528;26.740;2023-07-13T06:10:53;16.13;;;10.95;;
60018;SDS011;45870;42.528;26.740;2023-07-13T06:13:19;11.40;;;10.20;;
60018;SDS011;45870;42.528;26.740;2023-07-13T06:15:48;18.88;;;10.38;;
60018;SDS011;45870;42.528;26.740;2023-07-13T06:18:14;11.40;;;9.60;;
60018;SDS011;45870;42.528;26.740;2023-07-13T06:20:40;16.02;;;9.80;;
60018;SDS011;45870;42.528;26.740;2023-07-13T06:23:06;13.38;;;9.85;;
60018;SDS011;45870;42.528;26.740;2023-07-13T06:25:31;12.30;;;10.00;;
60018;SDS011;45870;42.528;26.740;2023-07-13T06:27:57;14.20;;;10.15;;
60018;SDS011;45870;42.528;26.740;2023-07-13T06:30:23;15.18;;;10.00;;
60018;SDS011;45870;42.528;26.740;2023-07-13T06:32:48;11.73;;;9.05;;
60018;SDS011;45870;42.528;26.740;2023-07-13T06:35:14;17.98;;;10.07;;
60018;SDS011;45870;42.528;26.740;2023-07-13T06:37:40;14.80;;;9.90;;
60018;SDS011;45870;42.528;26.740;2023-07-13T06:40:06;11.48;;;9.85;;
60018;SDS011;45870;42.528;26.740;2023-07-13T06:42:32;13.75;;;9.57;;
60018;SDS011;45870;42.528;26.740;2023-07-13T06:44:57;12.98;;;9.73;;
60018;SDS011;45870;42.528;26.740;2023-07-13T06:47:23;14.95;;;9.77;;
60018;SDS011;45870;42.528;26.740;2023-07-13T06:49:50;13.20;;;9.85;;
60018;SDS011;45870;42.528;26.740;2023-07-13T06:52:15;14.65;;;10.43;;
60018;SDS011;45870;42.528;26.740;2023-07-13T06:54:41;16.90;;;10.10;;
60018;SDS011;45870;42.528;26.740;2023-07-13T06:57:07;19.27;;;9.50;;
60018;SDS011;45870;42.528;26.740;2023-07-13T06:59:33;13.00;;;9.75;;
60018;SDS011;45870;42.528;26.740;2023-07-13T07:01:59;16.23;;;9.35;;
60018;SDS011;45870;42.528;26.740;2023-07-13T07:04:24;14.23;;;10.07;;
60018;SDS011;45870;42.528;26.740;2023-07-13T07:06:50;14.77;;;9.57;;
60018;SDS011;45870;42.528;26.740;2023-07-13T07:09:16;10.98;;;9.32;;
60018;SDS011;45870;42.528;26.740;2023-07-13T07:11:42;13.20;;;9.23;;
60018;SDS011;45870;42.528;26.740;2023-07-13T07:14:07;11.10;;;9.30;;
60018;SDS011;45870;42.528;26.740;2023-07-13T07:16:33;13.38;;;9.93;;
60018;SDS011;45870;42.528;26.740;2023-07-13T07:18:59;13.15;;;9.98;;
60018;SDS011;45870;42.528;26.740;2023-07-13T07:21:25;12.48;;;9.77;;
60018;SDS011;45870;42.528;26.740;2023-07-13T07:23:51;15.27;;;9.85;;
60018;SDS011;45870;42.528;26.740;2023-07-13T07:26:17;13.00;;;9.88;;
60018;SDS011;45870;42.528;26.740;2023-07-13T07:28:43;13.70;;;10.00;;
60018;SDS011;45870;42.528;26.740;2023-07-13T07:31:09;11.30;;;9.48;;
60018;SDS011;45870;42.528;26.740;2023-07-13T07:33:35;13.73;;;9.63;;
60018;SDS011;45870;42.528;26.740;2023-07-13T07:36:01;11.65;;;9.70;;
60018;SDS011;45870;42.528;26.740;2023-07-13T07:38:27;15.02;;;10.07;;
60018;SDS011;45870;42.528;26.740;2023-07-13T07:40:53;15.77;;;9.75;;
60018;SDS011;45870;42.528;26.740;2023-07-13T07:43:18;14.48;;;9.80;;
60018;SDS011;45870;42.528;26.740;2023-07-13T07:45:44;13.68;;;9.85;;
60018;SDS011;45870;42.528;26.740;2023-07-13T07:48:11;10.88;;;9.32;;
60018;SDS011;45870;42.528;26.740;2023-07-13T07:50:37;15.55;;;10.50;;
60018;SDS011;45870;42.528;26.740;2023-07-13T07:53:04;12.52;;;9.45;;
60018;SDS011;45870;42.528;26.740;2023-07-13T07:55:35;14.98;;;9.70;;
60018;SDS011;45870;42.528;26.740;2023-07-13T07:58:01;11.50;;;10.30;;
60018;SDS011;45870;42.528;26.740;2023-07-13T08:00:27;14.25;;;10.35;;
60018;SDS011;45870;42.528;26.740;2023-07-13T08:02:55;11.43;;;9.70;;
60018;SDS011;45870;42.528;26.740;2023-07-13T08:05:21;12.15;;;10.38;;
60018;SDS011;45870;42.528;26.740;2023-07-13T08:07:46;13.70;;;9.82;;
60018;SDS011;45870;42.528;26.740;2023-07-13T08:10:12;16.50;;;10.52;;
60018;SDS011;45870;42.528;26.740;2023-07-13T08:12:39;15.13;;;10.00;;
60018;SDS011;45870;42.528;26.740;2023-07-13T08:15:06;13.65;;;9.68;;
60018;SDS011;45870;42.528;26.740;2023-07-13T08:17:34;12.60;;;9.73;;
60018;SDS011;45870;42.528;26.740;2023-07-13T08:20:00;11.00;;;9.68;;
60018;SDS011;45870;42.528;26.740;2023-07-13T08:22:26;13.88;;;9.32;;
60018;SDS011;45870;42.528;26.740;2023-07-13T08:24:52;12.63;;;8.95;;
60018;SDS011;45870;42.528;26.740;2023-07-13T08:27:24;15.63;;;9.73;;
60018;SDS011;45870;42.528;26.740;2023-07-13T08:29:52;16.83;;;8.95;;
60018;SDS011;45870;42.528;26.740;2023-07-13T08:32:18;13.65;;;8.90;;
60018;SDS011;45870;42.528;26.740;2023-07-13T08:34:45;11.82;;;9.32;;
60018;SDS011;45870;42.528;26.740;2023-07-13T08:37:12;11.43;;;8.88;;
60018;SDS011;45870;42.528;26.740;2023-07-13T08:39:38;12.55;;;8.82;;
60018;SDS011;45870;42.528;26.740;2023-07-13T08:42:11;11.52;;;8.50;;
60018;SDS011;45870;42.528;26.740;2023-07-13T08:47:39;17.98;;;9.30;;
60018;SDS011;45870;42.528;26.740;2023-07-13T08:50:12;13.00;;;9.10;;
60018;SDS011;45870;42.528;26.740;2023-07-13T08:52:41;14.97;;;8.87;;
60018;SDS011;45870;42.528;26.740;2023-07-13T08:55:11;10.75;;;8.70;;
60018;SDS011;45870;42.528;26.740;2023-07-13T08:57:56;12.38;;;9.93;;
60018;SDS011;45870;42.528;26.740;2023-07-13T09:00:31;11.98;;;9.20;;
60018;SDS011;45870;42.528;26.740;2023-07-13T09:03:03;13.63;;;9.32;;
60018;SDS011;45870;42.528;26.740;2023-07-13T09:05:39;23.08;;;8.98;;
60018;SDS011;45870;42.528;26.740;2023-07-13T09:10:59;10.48;;;9.27;;
60018;SDS011;45870;42.528;26.740;2023-07-13T09:16:17;12.57;;;8.57;;
60018;SDS011;45870;42.528;26.740;2023-07-13T09:18:44;12.85;;;8.82;;
60018;SDS011;45870;42.528;26.740;2023-07-13T09:21:18;12.75;;;8.23;;
60018;SDS011;45870;42.528;26.740;2023-07-13T09:23:49;10.90;;;8.48;;
60018;SDS011;45870;42.528;26.740;2023-07-13T09:26:22;12.45;;;7.85;;
60018;SDS011;45870;42.528;26.740;2023-07-13T09:29:09;12.85;;;8.00;;
60018;SDS011;45870;42.528;26.740;2023-07-13T09:31:53;14.07;;;7.38;;
60018;SDS011;45870;42.528;26.740;2023-07-13T09:34:23;9.07;;;7.55;;
60018;SDS011;45870;42.528;26.740;2023-07-13T09:36:51;9.65;;;7.32;;
60018;SDS011;45870;42.528;26.740;2023-07-13T09:42:12;16.42;;;7.93;;
60018;SDS011;45870;42.528;26.740;2023-07-13T09:45:00;11.10;;;6.82;;
60018;SDS011;45870;42.528;26.740;2023-07-13T09:47:32;11.55;;;6.43;;
60018;SDS011;45870;42.528;26.740;2023-07-13T09:50:04;12.88;;;7.35;;
60018;SDS011;45870;42.528;26.740;2023-07-13T09:52:43;10.00;;;6.60;;
60018;SDS011;45870;42.528;26.740;2023-07-13T09:55:30;13.30;;;6.80;;
60018;SDS011;45870;42.528;26.740;2023-07-13T09:58:09;9.95;;;6.30;;
60018;SDS011;45870;42.528;26.740;2023-07-13T10:00:41;9.45;;;6.18;;
60018;SDS011;45870;42.528;26.740;2023-07-13T10:03:19;7.82;;;6.07;;
60018;SDS011;45870;42.528;26.740;2023-07-13T10:05:49;11.23;;;5.23;;
60018;SDS011;45870;42.528;26.740;2023-07-13T10:10:59;15.63;;;5.30;;
60018;SDS011;45870;42.528;26.740;2023-07-13T10:13:35;9.38;;;4.82;;
60018;SDS011;45870;42.528;26.740;2023-07-13T10:16:04;11.68;;;5.13;;
60018;SDS011;45870;42.528;26.740;2023-07-13T10:18:43;9.48;;;5.30;;
60018;SDS011;45870;42.528;26.740;2023-07-13T10:21:50;10.32;;;5.47;;
60018;SDS011;45870;42.528;26.740;2023-07-13T10:24:21;10.35;;;5.57;;
60018;SDS011;45870;42.528;26.740;2023-07-13T10:27:10;8.32;;;5.68;;
60018;SDS011;45870;42.528;26.740;2023-07-13T10:29:44;8.48;;;5.90;;
60018;SDS011;45870;42.528;26.740;2023-07-13T10:32:13;10.43;;;6.35;;
60018;SDS011;45870;42.528;26.740;2023-07-13T10:34:41;11.10;;;5.85;;
60018;SDS011;45870;42.528;26.740;2023-07-13T10:37:16;13.70;;;5.90;;
60018;SDS011;45870;42.528;26.740;2023-07-13T10:39:47;9.95;;;5.75;;
60018;SDS011;45870;42.528;26.740;2023-07-13T10:42:18;11.40;;;5.70;;
60018;SDS011;45870;42.528;26.740;2023-07-13T10:44:54;8.70;;;5.75;;
60018;SDS011;45870;42.528;26.740;2023-07-13T10:47:20;11.98;;;5.70;;
60018;SDS011;45870;42.528;26.740;2023-07-13T10:49:45;9.05;;;5.57;;
60018;SDS011;45870;42.528;26.740;2023-07-13T10:55:31;13.00;;;5.80;;
60018;SDS011;45870;42.528;26.740;2023-07-13T10:58:19;14.98;;;5.93;;
60018;SDS011;45870;42.528;26.740;2023-07-13T11:00:49;8.45;;;6.25;;
60018;SDS011;45870;42.528;26.740;2023-07-13T11:03:18;11.15;;;5.75;;
60018;SDS011;45870;42.528;26.740;2023-07-13T11:05:48;9.48;;;5.53;;
60018;SDS011;45870;42.528;26.740;2023-07-13T11:08:34;9.68;;;6.28;;
60018;SDS011;45870;42.528;26.740;2023-07-13T11:13:56;13.65;;;6.57;;
60018;SDS011;45870;42.528;26.740;2023-07-13T11:18:50;13.27;;;6.70;;
60018;SDS011;45870;42.528;26.740;2023-07-13T11:21:26;10.40;;;6.32;;
60018;SDS011;45870;42.528;26.740;2023-07-13T11:24:01;11.10;;;6.65;;
60018;SDS011;45870;42.528;26.740;2023-07-13T11:32:20;11.55;;;6.25;;
60018;SDS011;45870;42.528;26.740;2023-07-13T11:34:52;12.98;;;6.50;;
60018;SDS011;45870;42.528;26.740;2023-07-13T11:37:19;10.68;;;5.85;;
60018;SDS011;45870;42.528;26.740;2023-07-13T11:39:51;9.75;;;6.65;;
60018;SDS011;45870;42.528;26.740;2023-07-13T11:42:18;8.40;;;6.65;;
60018;SDS011;45870;42.528;26.740;2023-07-13T11:44:48;10.63;;;6.53;;
60018;SDS011;45870;42.528;26.740;2023-07-13T11:47:20;14.93;;;6.32;;
60018;SDS011;45870;42.528;26.740;2023-07-13T11:52:19;9.30;;;5.68;;
60018;SDS011;45870;42.528;26.740;2023-07-13T11:54:52;11.30;;;6.23;;
60018;SDS011;45870;42.528;26.740;2023-07-13T12:00:13;10.45;;;6.05;;
60018;SDS011;45870;42.528;26.740;2023-07-13T12:02:45;10.10;;;6.20;;
60018;SDS011;45870;42.528;26.740;2023-07-13T12:05:15;10.23;;;6.30;;
60018;SDS011;45870;42.528;26.740;2023-07-13T12:07:46;15.13;;;6.03;;
60018;SDS011;45870;42.528;26.740;2023-07-13T12:12:48;11.40;;;6.32;;
60018;SDS011;45870;42.528;26.740;2023-07-13T12:15:20;12.18;;;5.78;;
60018;SDS011;45870;42.528;26.740;2023-07-13T12:17:48;11.55;;;6.05;;
60018;SDS011;45870;42.528;26.740;2023-07-13T12:20:35;11.70;;;6.22;;
60018;SDS011;45870;42.528;26.740;2023-07-13T12:23:05;10.93;;;5.65;;
60018;SDS011;45870;42.528;26.740;2023-07-13T12:25:40;9.20;;;6.28;;
60018;SDS011;45870;42.528;26.740;2023-07-13T12:28:22;10.45;;;6.28;;
60018;SDS011;45870;42.528;26.740;2023-07-13T12:31:20;8.68;;;6.20;;
60018;SDS011;45870;42.528;26.740;2023-07-13T12:33:47;17.60;;;6.63;;
60018;SDS011;45870;42.528;26.740;2023-07-13T12:36:15;10.48;;;5.90;;
60018;SDS011;45870;42.528;26.740;2023-07-13T12:38:44;11.88;;;6.15;;
60018;SDS011;45870;42.528;26.740;2023-07-13T12:41:11;16.67;;;6.80;;
60018;SDS011;45870;42.528;26.740;2023-07-13T12:43:37;9.52;;;6.15;;
60018;SDS011;45870;42.528;26.740;2023-07-13T12:48:50;12.00;;;6.15;;
60018;SDS011;45870;42.528;26.740;2023-07-13T12:51:27;10.45;;;5.70;;
60018;SDS011;45870;42.528;26.740;2023-07-13T12:53:57;11.90;;;6.22;;
60018;SDS011;45870;42.528;26.740;2023-07-13T12:56:30;14.52;;;6.53;;
60018;SDS011;45870;42.528;26.740;2023-07-13T12:59:01;11.95;;;5.80;;
60018;SDS011;45870;42.528;26.740;2023-07-13T13:01:29;9.57;;;5.45;;
60018;SDS011;45870;42.528;26.740;2023-07-13T13:04:01;9.50;;;5.93;;
60018;SDS011;45870;42.528;26.740;2023-07-13T13:06:32;14.40;;;5.70;;
60018;SDS011;45870;42.528;26.740;2023-07-13T13:08:58;10.20;;;5.78;;
60018;SDS011;45870;42.528;26.740;2023-07-13T13:11:25;8.68;;;5.18;;
60018;SDS011;45870;42.528;26.740;2023-07-13T13:13:53;10.80;;;5.80;;
60018;SDS011;45870;42.528;26.740;2023-07-13T13:16:21;11.55;;;5.18;;
60018;SDS011;45870;42.528;26.740;2023-07-13T13:18:57;12.95;;;5.38;;
60018;SDS011;45870;42.528;26.740;2023-07-13T13:21:27;8.95;;;5.60;;
60018;SDS011;45870;42.528;26.740;2023-07-13T13:23:53;10.50;;;5.63;;
60018;SDS011;45870;42.528;26.740;2023-07-13T13:26:19;9.80;;;5.53;;
60018;SDS011;45870;42.528;26.740;2023-07-13T13:28:47;13.40;;;5.88;;
60018;SDS011;45870;42.528;26.740;2023-07-13T13:31:13;12.70;;;5.90;;
60018;SDS011;45870;42.528;26.740;2023-07-13T13:33:40;11.27;;;6.28;;
60018;SDS011;45870;42.528;26.740;2023-07-13T13:36:19;13.40;;;5.45;;
60018;SDS011;45870;42.528;26.740;2023-07-13T13:38:48;10.30;;;5.60;;
60018;SDS011;45870;42.528;26.740;2023-07-13T13:41:15;16.90;;;6.20;;
60018;SDS011;45870;42.528;26.740;2023-07-13T13:43:41;13.70;;;6.15;;
60018;SDS011;45870;42.528;26.740;2023-07-13T13:46:19;12.98;;;5.68;;
60018;SDS011;45870;42.528;26.740;2023-07-13T13:48:50;13.15;;;6.07;;
60018;SDS011;45870;42.528;26.740;2023-07-13T13:51:17;11.50;;;5.40;;
60018;SDS011;45870;42.528;26.740;2023-07-13T13:53:45;11.85;;;5.50;;
60018;SDS011;45870;42.528;26.740;2023-07-13T13:56:12;12.15;;;5.90;;
60018;SDS011;45870;42.528;26.740;2023-07-13T13:58:38;11.43;;;6.13;;
60018;SDS011;45870;42.528;26.740;2023-07-13T14:01:04;11.48;;;5.47;;
60018;SDS011;45870;42.528;26.740;2023-07-13T14:03:35;10.05;;;5.78;;
60018;SDS011;45870;42.528;26.740;2023-07-13T14:06:01;15.02;;;5.72;;
60018;SDS011;45870;42.528;26.740;2023-07-13T14:08:27;13.02;;;6.07;;
60018;SDS011;45870;42.528;26.740;2023-07-13T14:10:53;14.82;;;5.47;;
60018;SDS011;45870;42.528;26.740;2023-07-13T14:13:23;8.82;;;4.95;;
60018;SDS011;45870;42.528;26.740;2023-07-13T14:15:52;9.83;;;5.20;;
60018;SDS011;45870;42.528;26.740;2023-07-13T14:18:18;12.52;;;5.82;;
60018;SDS011;45870;42.528;26.740;2023-07-13T14:20:44;11.43;;;5.63;;
60018;SDS011;45870;42.528;26.740;2023-07-13T14:23:12;14.10;;;5.85;;
60018;SDS011;45870;42.528;26.740;2023-07-13T14:25:38;13.20;;;5.50;;
60018;SDS011;45870;42.528;26.740;2023-07-13T14:28:10;11.32;;;5.53;;
60018;SDS011;45870;42.528;26.740;2023-07-13T14:30:49;11.57;;;5.30;;
60018;SDS011;45870;42.528;26.740;2023-07-13T14:33:16;13.00;;;5.82;;
60018;SDS011;45870;42.528;26.740;2023-07-13T14:35:41;11.15;;;5.53;;
60018;SDS011;45870;42.528;26.740;2023-07-13T14:38:11;13.43;;;5.53;;
60018;SDS011;45870;42.528;26.740;2023-07-13T14:40:40;12.48;;;6.15;;
60018;SDS011;45870;42.528;26.740;2023-07-13T14:43:09;14.50;;;5.97;;
60018;SDS011;45870;42.528;26.740;2023-07-13T14:45:37;11.32;;;6.00;;
60018;SDS011;45870;42.528;26.740;2023-07-13T14:48:14;9.38;;;6.05;;
60018;SDS011;45870;42.528;26.740;2023-07-13T14:50:44;14.63;;;6.00;;
60018;SDS011;45870;42.528;26.740;2023-07-13T14:53:11;13.75;;;6.35;;
60018;SDS011;45870;42.528;26.740;2023-07-13T14:55:38;14.02;;;5.93;;
60018;SDS011;45870;42.528;26.740;2023-07-13T14:58:04;9.52;;;6.10;;
60018;SDS011;45870;42.528;26.740;2023-07-13T15:00:29;13.32;;;5.82;;
60018;SDS011;45870;42.528;26.740;2023-07-13T15:02:56;13.18;;;6.05;;
60018;SDS011;45870;42.528;26.740;2023-07-13T15:05:24;11.75;;;6.45;;
60018;SDS011;45870;42.528;26.740;2023-07-13T15:07:53;12.05;;;5.97;;
60018;SDS011;45870;42.528;26.740;2023-07-13T15:10:20;10.40;;;6.72;;